createdAt,value
2017-12-02T00:00:31.833Z,47.03
2017-12-02T00:03:01.516Z,46.50
2017-12-02T00:05:31.543Z,43.28
2017-12-02T00:08:01.544Z,45.22
2017-12-02T00:10:30.807Z,47.50
2017-12-02T00:13:00.047Z,50.78
2017-12-02T00:15:29.295Z,43.47
2017-12-02T00:17:58.578Z,44.30
2017-12-02T00:20:28.594Z,44.15
2017-12-02T00:22:58.588Z,48.03
2017-12-02T00:25:27.869Z,47.47
2017-12-02T00:27:57.109Z,43.92
2017-12-02T00:30:27.124Z,46.05
2017-12-02T00:32:57.175Z,51.40
2017-12-02T00:35:26.426Z,48.28
2017-12-02T00:37:55.687Z,45.90
2017-12-02T00:40:24.944Z,51.95
2017-12-02T00:42:54.204Z,46.65
2017-12-02T00:45:23.461Z,44.75
2017-12-02T00:47:52.695Z,46.65
2017-12-02T00:50:21.969Z,44.55
2017-12-02T00:52:51.225Z,50.95
2017-12-02T00:55:20.471Z,45.20
2017-12-02T00:57:49.732Z,43.58
2017-12-02T01:00:19.738Z,47.45
2017-12-02T01:02:49.007Z,37.67
2017-12-02T01:05:18.243Z,43.15
2017-12-02T01:07:47.491Z,44.53
2017-12-02T01:10:16.741Z,44.40
2017-12-02T01:12:45.979Z,46.63
2017-12-02T01:15:15.246Z,47.62
2017-12-02T01:17:44.492Z,47.28
2017-12-02T01:20:13.736Z,52.10
2017-12-02T01:22:42.991Z,42.47
2017-12-02T01:25:12.242Z,45.88
2017-12-02T01:27:41.508Z,47.22
2017-12-02T01:30:10.753Z,49.47
2017-12-02T01:32:40.784Z,45.85
2017-12-02T01:35:10.817Z,51.33
2017-12-02T01:37:40.078Z,44.00
2017-12-02T01:40:09.321Z,45.75
2017-12-02T01:42:38.585Z,48.00
2017-12-02T01:45:07.837Z,46.40
2017-12-02T01:47:37.153Z,49.80
2017-12-02T01:50:06.518Z,42.92
2017-12-02T01:52:35.711Z,47.38
2017-12-02T01:55:04.960Z,51.63
2017-12-02T01:57:34.211Z,44.55
2017-12-02T02:03:00.234Z,46.88
2017-12-02T02:05:29.518Z,44.63
2017-12-02T02:07:58.772Z,46.00
2017-12-02T02:10:28.041Z,52.67
2017-12-02T02:12:58.050Z,44.15
2017-12-02T02:15:27.319Z,42.60
2017-12-02T02:17:56.562Z,47.42
2017-12-02T02:20:25.826Z,51.92
2017-12-02T02:22:55.075Z,47.60
2017-12-02T02:25:24.337Z,44.17
2017-12-02T02:27:53.594Z,45.50
2017-12-02T02:30:22.853Z,44.13
2017-12-02T02:32:52.904Z,48.58
2017-12-02T02:35:22.149Z,49.03
2017-12-02T02:37:51.395Z,57.60
2017-12-02T02:40:20.659Z,51.65
2017-12-02T02:42:50.785Z,51.40
2017-12-02T02:45:20.049Z,51.35
2017-12-02T02:47:49.372Z,54.08
2017-12-02T02:50:18.612Z,54.70
2017-12-02T02:52:48.648Z,53.38
2017-12-02T02:55:17.901Z,54.88
2017-12-02T02:57:47.182Z,48.95
2017-12-02T03:00:16.433Z,56.37
2017-12-02T03:02:45.688Z,48.28
2017-12-02T03:05:14.953Z,46.85
2017-12-02T03:07:44.207Z,53.72
2017-12-02T03:10:13.477Z,48.22
2017-12-02T03:12:42.723Z,50.85
2017-12-02T03:15:12.740Z,49.30
2017-12-02T03:17:42.763Z,47.47
2017-12-02T03:20:12.814Z,47.33
2017-12-02T03:22:42.086Z,50.10
2017-12-02T03:25:12.109Z,57.83
2017-12-02T03:27:41.391Z,51.08
2017-12-02T03:30:11.424Z,47.15
2017-12-02T03:32:41.469Z,46.80
2017-12-02T03:35:10.757Z,50.00
2017-12-02T03:37:40.027Z,52.38
2017-12-02T03:40:10.079Z,42.38
2017-12-02T03:42:40.122Z,48.13
2017-12-02T03:45:09.405Z,49.10
2017-12-02T03:47:38.672Z,57.65
2017-12-02T03:50:07.997Z,51.22
2017-12-02T03:52:37.297Z,49.13
2017-12-02T03:55:06.580Z,51.55
2017-12-02T03:57:35.843Z,51.67
2017-12-02T04:00:05.108Z,49.33
2017-12-02T04:02:34.393Z,54.22
2017-12-02T04:05:03.647Z,51.20
2017-12-02T04:07:32.911Z,53.92
2017-12-02T04:10:02.199Z,52.90
2017-12-02T04:12:31.464Z,42.50
2017-12-02T04:15:00.708Z,55.45
2017-12-02T04:17:30.006Z,46.50
2017-12-02T04:19:59.275Z,52.40
2017-12-02T04:22:28.536Z,47.62
2017-12-02T04:24:57.802Z,43.85
2017-12-02T04:27:27.108Z,52.72
2017-12-02T04:29:56.368Z,40.75
2017-12-02T04:32:25.646Z,44.50
2017-12-02T04:34:54.921Z,39.80
2017-12-02T04:37:24.266Z,43.60
2017-12-02T04:39:53.518Z,52.28
2017-12-02T04:42:23.580Z,42.05
2017-12-02T04:44:52.833Z,45.92
2017-12-02T04:47:22.881Z,44.35
2017-12-02T04:49:52.187Z,46.42
2017-12-02T04:52:21.455Z,51.35
2017-12-02T04:54:50.736Z,63.53
2017-12-02T04:57:20.005Z,52.03
2017-12-02T04:59:49.280Z,57.60
2017-12-02T05:02:18.547Z,64.20
2017-12-02T05:04:47.945Z,64.03
2017-12-02T05:07:17.195Z,77.18
2017-12-02T05:09:46.455Z,65.20
2017-12-02T05:12:15.724Z,60.80
2017-12-02T05:14:45.772Z,59.45
2017-12-02T05:17:15.039Z,63.47
2017-12-02T05:19:44.318Z,58.25
2017-12-02T05:22:13.606Z,60.50
2017-12-02T05:24:42.861Z,58.38
2017-12-02T05:27:12.115Z,61.75
2017-12-02T05:29:41.384Z,55.05
2017-12-02T05:32:10.646Z,61.90
2017-12-02T05:34:40.680Z,53.30
2017-12-02T05:37:09.960Z,51.72
2017-12-02T05:39:39.976Z,58.00
2017-12-02T05:42:10.008Z,55.88
2017-12-02T05:44:40.032Z,56.30
2017-12-02T05:47:09.325Z,60.28
2017-12-02T05:49:39.368Z,55.78
2017-12-02T05:52:08.645Z,59.35
2017-12-02T05:54:37.923Z,56.67
2017-12-02T05:57:07.193Z,57.47
2017-12-02T05:59:36.457Z,59.60
2017-12-02T06:02:05.737Z,67.72
2017-12-02T06:04:35.765Z,53.30
2017-12-02T06:07:05.034Z,60.20
2017-12-02T06:09:34.302Z,53.67
2017-12-02T06:12:03.556Z,57.40
2017-12-02T06:14:32.827Z,50.10
2017-12-02T06:17:02.079Z,56.78
2017-12-02T06:19:31.393Z,52.83
2017-12-02T06:22:00.599Z,48.87
2017-12-02T06:24:29.921Z,58.55
2017-12-02T06:26:59.187Z,51.78
2017-12-02T06:29:28.443Z,52.45
2017-12-02T06:31:57.705Z,52.45
2017-12-02T06:34:26.954Z,53.53
2017-12-02T06:36:56.231Z,43.10
2017-12-02T06:39:25.499Z,49.38
2017-12-02T06:41:54.772Z,46.45
2017-12-02T06:44:24.806Z,56.80
2017-12-02T06:46:54.060Z,59.58
2017-12-02T06:49:23.370Z,47.45
2017-12-02T06:51:52.635Z,56.60
2017-12-02T06:54:21.912Z,45.72
2017-12-02T06:56:51.231Z,50.35
2017-12-02T06:59:20.569Z,41.30
2017-12-02T07:01:49.864Z,35.05
2017-12-02T07:04:19.200Z,37.50
2017-12-02T07:06:48.499Z,36.10
2017-12-02T07:09:18.802Z,34.08
2017-12-02T07:11:48.171Z,38.45
2017-12-02T07:14:17.456Z,43.25
2017-12-02T07:16:46.720Z,45.70
2017-12-02T07:19:16.734Z,46.40
2017-12-02T07:21:46.000Z,40.05
2017-12-02T07:24:15.332Z,44.08
2017-12-02T07:26:45.428Z,41.33
2017-12-02T07:29:14.683Z,43.08
2017-12-02T07:31:43.971Z,37.83
2017-12-02T07:34:13.998Z,38.03
2017-12-02T07:36:43.264Z,39.70
2017-12-02T07:39:12.517Z,38.97
2017-12-02T07:41:41.779Z,34.40
2017-12-02T07:44:11.042Z,44.30
2017-12-02T07:46:40.339Z,38.17
2017-12-02T07:49:09.603Z,42.33
2017-12-02T07:51:38.887Z,37.60
2017-12-02T07:54:08.161Z,36.90
2017-12-02T07:56:37.422Z,42.72
2017-12-02T07:59:08.098Z,40.95
2017-12-02T08:01:37.524Z,38.22
2017-12-02T08:04:06.775Z,39.88
2017-12-02T08:06:36.036Z,45.88
2017-12-02T08:09:08.035Z,42.78
2017-12-02T08:11:37.508Z,39.35
2017-12-02T08:14:06.805Z,43.72
2017-12-02T08:16:36.841Z,39.13
2017-12-02T08:19:06.092Z,40.38
2017-12-02T08:21:35.354Z,42.33
2017-12-02T08:56:56.568Z,43.15
2017-12-02T08:59:25.805Z,44.08
2017-12-02T09:01:55.520Z,41.65
2017-12-02T09:04:24.759Z,44.40
2017-12-02T09:06:54.000Z,41.45
2017-12-02T09:09:23.273Z,44.10
2017-12-02T09:11:52.569Z,40.55
2017-12-02T09:14:21.841Z,41.47
2017-12-02T09:16:51.835Z,35.20
2017-12-02T09:19:21.105Z,40.63
2017-12-02T09:21:50.338Z,43.85
2017-12-02T09:24:20.375Z,38.30
2017-12-02T09:26:49.632Z,42.03
2017-12-02T09:29:18.878Z,42.22
2017-12-02T09:31:48.117Z,35.80
2017-12-02T09:34:17.390Z,41.90
2017-12-02T09:36:46.658Z,36.90
2017-12-02T09:39:16.701Z,41.22
2017-12-02T09:41:45.986Z,44.88
2017-12-02T09:44:15.235Z,38.88
2017-12-02T09:46:44.477Z,37.53
2017-12-02T09:49:13.716Z,40.97
2017-12-02T09:51:43.045Z,37.42
2017-12-02T09:54:12.239Z,36.80
2017-12-02T09:56:41.490Z,42.50
2017-12-02T09:59:10.724Z,41.10
2017-12-02T10:01:39.976Z,41.50
2017-12-02T10:04:09.214Z,41.37
2017-12-02T10:06:38.469Z,38.97
2017-12-02T10:09:07.730Z,40.80
2017-12-02T10:11:36.982Z,51.15
2017-12-02T10:14:06.252Z,38.83
2017-12-02T10:16:36.284Z,43.22
2017-12-02T10:19:05.567Z,41.80
2017-12-02T10:21:35.572Z,39.10
2017-12-02T10:24:04.832Z,44.53
2017-12-02T10:26:34.153Z,40.28
2017-12-02T10:29:03.374Z,42.75
2017-12-02T10:31:32.626Z,39.40
2017-12-02T10:34:01.894Z,39.65
2017-12-02T10:36:31.159Z,33.05
2017-12-02T10:39:00.410Z,38.72
2017-12-02T10:41:29.698Z,43.63
2017-12-02T10:43:59.702Z,40.42
2017-12-02T10:46:29.732Z,46.45
2017-12-02T10:48:58.984Z,41.37
2017-12-02T10:51:28.250Z,42.25
2017-12-02T10:53:57.507Z,46.37
2017-12-02T10:56:27.620Z,42.35
2017-12-02T10:58:56.887Z,38.85
2017-12-02T11:01:26.128Z,44.13
2017-12-02T11:03:56.178Z,41.22
2017-12-02T11:06:25.429Z,36.30
2017-12-02T11:08:54.696Z,42.05
2017-12-02T11:11:23.961Z,40.22
2017-12-02T11:13:53.220Z,41.95
2017-12-02T11:16:22.461Z,44.72
2017-12-02T11:18:51.716Z,37.85
2017-12-02T11:21:20.996Z,36.85
2017-12-02T11:23:50.242Z,33.92
2017-12-02T11:26:20.277Z,39.25
2017-12-02T11:28:49.570Z,37.97
2017-12-02T11:31:18.955Z,39.60
2017-12-02T11:33:48.208Z,43.45
2017-12-02T11:36:17.487Z,38.60
2017-12-02T11:38:46.717Z,39.55
2017-12-02T11:41:15.984Z,38.80
2017-12-02T11:43:45.238Z,34.70
2017-12-02T11:46:14.481Z,45.80
2017-12-02T11:48:44.698Z,39.15
2017-12-02T11:51:13.947Z,37.08
2017-12-02T11:53:44.021Z,36.80
2017-12-02T11:56:13.288Z,42.40
2017-12-02T11:58:43.309Z,36.38
2017-12-02T12:01:12.548Z,35.42
2017-12-02T12:03:41.864Z,37.58
2017-12-02T12:06:11.108Z,40.72
2017-12-02T12:08:41.140Z,36.67
2017-12-02T12:11:10.388Z,43.55
2017-12-02T12:13:39.669Z,42.17
2017-12-02T12:16:08.915Z,36.92
2017-12-02T12:18:38.166Z,45.90
2017-12-02T12:21:07.439Z,35.58
2017-12-02T12:23:36.698Z,35.50
2017-12-02T12:26:05.932Z,38.60
2017-12-02T12:28:35.204Z,37.97
2017-12-02T12:31:04.472Z,38.60
2017-12-02T12:33:33.685Z,33.15
2017-12-02T12:36:02.941Z,39.55
2017-12-02T12:38:32.189Z,32.45
2017-12-02T12:41:01.463Z,32.50
2017-12-02T12:43:30.708Z,31.30
2017-12-02T12:46:00.748Z,32.17
2017-12-02T12:48:29.992Z,33.25
2017-12-02T12:50:59.237Z,31.12
2017-12-02T12:53:28.488Z,32.40
2017-12-02T12:55:57.748Z,33.80
2017-12-02T12:58:27.003Z,33.30
2017-12-02T13:00:56.260Z,40.72
2017-12-02T13:03:25.515Z,35.20
2017-12-02T13:05:55.542Z,30.50
2017-12-02T13:08:24.798Z,31.10
2017-12-02T13:10:54.062Z,30.58
2017-12-02T13:13:23.318Z,32.65
2017-12-02T13:15:53.332Z,33.88
2017-12-02T13:18:22.619Z,32.20
2017-12-02T13:20:51.874Z,28.25
2017-12-02T13:23:21.123Z,30.70
2017-12-02T13:25:50.428Z,30.35
2017-12-02T13:28:19.677Z,30.23
2017-12-02T13:30:48.926Z,32.40
2017-12-02T13:33:18.222Z,31.83
2017-12-02T13:35:47.478Z,28.45
2017-12-02T13:38:16.726Z,35.95
2017-12-02T13:40:45.992Z,31.75
2017-12-02T13:43:15.241Z,35.50
2017-12-02T13:45:45.284Z,33.78
2017-12-02T13:48:14.533Z,30.62
2017-12-02T13:50:43.804Z,27.62
2017-12-02T13:53:13.061Z,33.95
2017-12-02T13:55:42.339Z,34.10
2017-12-02T13:58:11.594Z,33.20
2017-12-02T14:00:40.874Z,30.08
2017-12-02T14:03:10.116Z,31.05
2017-12-02T14:05:39.429Z,28.50
2017-12-02T14:08:08.678Z,33.25
2017-12-02T14:10:37.934Z,34.25
2017-12-02T14:13:07.186Z,31.77
2017-12-02T14:15:36.415Z,29.83
2017-12-02T14:18:05.687Z,30.02
2017-12-02T14:20:34.940Z,29.87
2017-12-02T14:23:04.959Z,31.65
2017-12-02T14:25:34.987Z,28.73
2017-12-02T14:28:04.228Z,26.50
2017-12-02T14:30:33.485Z,26.08
2017-12-02T14:33:03.518Z,30.67
2017-12-02T14:35:32.884Z,29.85
2017-12-02T14:38:02.143Z,26.70
2017-12-02T14:40:31.395Z,29.17
2017-12-02T14:43:00.663Z,31.08
2017-12-02T14:45:29.943Z,29.85
2017-12-02T14:47:59.199Z,29.33
2017-12-02T14:50:28.454Z,27.67
2017-12-02T14:52:57.752Z,29.87
2017-12-02T14:55:27.012Z,31.37
2017-12-02T14:57:56.252Z,30.20
2017-12-02T15:00:25.538Z,28.50
2017-12-02T15:02:54.799Z,36.95
2017-12-02T15:05:24.059Z,31.20
2017-12-02T15:07:53.318Z,32.35
2017-12-02T15:10:22.580Z,36.05
2017-12-02T15:12:52.619Z,38.05
2017-12-02T15:15:21.867Z,37.20
2017-12-02T15:17:51.120Z,36.15
2017-12-02T15:20:20.376Z,41.80
2017-12-02T15:22:49.614Z,36.03
2017-12-02T15:25:18.897Z,39.88
2017-12-02T15:27:48.911Z,33.78
2017-12-02T15:30:19.295Z,38.47
2017-12-02T15:32:48.649Z,38.83
2017-12-02T15:35:17.884Z,37.97
2017-12-02T15:37:47.148Z,38.15
2017-12-02T15:40:16.414Z,31.23
2017-12-02T15:42:45.651Z,37.95
2017-12-02T15:45:14.905Z,34.38
2017-12-02T15:47:44.194Z,30.17
2017-12-02T15:50:13.445Z,32.03
2017-12-02T15:52:42.710Z,32.72
2017-12-02T15:55:11.962Z,39.25
2017-12-02T15:57:41.227Z,36.67
2017-12-02T16:00:11.252Z,38.70
2017-12-02T16:02:40.509Z,45.80
2017-12-02T16:05:10.776Z,38.58
2017-12-02T16:07:40.816Z,31.25
2017-12-02T16:10:10.796Z,34.78
2017-12-02T16:12:40.836Z,32.38
2017-12-02T16:15:10.080Z,32.15
2017-12-02T16:17:39.320Z,30.65
2017-12-02T16:20:08.609Z,38.75
2017-12-02T16:22:38.617Z,37.15
2017-12-02T16:25:07.944Z,31.92
2017-12-02T16:27:37.202Z,37.17
2017-12-02T16:30:06.458Z,37.35
2017-12-02T16:32:35.706Z,27.83
2017-12-02T16:35:05.749Z,33.13
2017-12-02T16:37:35.005Z,37.60
2017-12-02T16:40:04.266Z,34.67
2017-12-02T16:42:33.499Z,36.25
2017-12-02T16:45:02.831Z,36.08
2017-12-02T16:47:32.077Z,39.45
2017-12-02T16:50:01.332Z,39.28
2017-12-02T16:52:31.346Z,32.53
2017-12-02T16:55:01.504Z,37.92
2017-12-02T16:57:30.751Z,39.90
2017-12-02T17:00:00.014Z,38.70
2017-12-02T17:02:29.268Z,35.90
2017-12-02T17:04:59.295Z,36.03
2017-12-02T17:07:29.310Z,36.65
2017-12-02T17:09:59.329Z,38.28
2017-12-02T17:12:29.371Z,41.30
2017-12-02T17:14:58.667Z,39.83
2017-12-02T17:17:27.880Z,37.67
2017-12-02T17:19:57.157Z,39.97
2017-12-02T17:22:26.418Z,38.40
2017-12-02T17:24:55.662Z,31.40
2017-12-02T17:27:25.009Z,38.25
2017-12-02T17:29:54.264Z,39.20
2017-12-02T17:32:23.525Z,39.13
2017-12-02T17:34:53.572Z,31.35
2017-12-02T17:37:22.825Z,35.92
2017-12-02T17:39:52.096Z,33.40
2017-12-02T17:42:21.340Z,34.25
2017-12-02T17:44:51.368Z,36.40
2017-12-02T17:47:21.394Z,33.33
2017-12-02T17:49:51.346Z,32.10
2017-12-02T17:52:20.612Z,29.58
2017-12-02T17:54:49.906Z,27.80
2017-12-02T17:57:19.150Z,29.63
2017-12-02T17:59:49.186Z,34.17
2017-12-02T18:02:18.550Z,30.88
2017-12-02T18:04:47.804Z,36.22
2017-12-02T18:07:17.887Z,35.92
2017-12-02T18:09:47.168Z,35.47
2017-12-02T18:12:16.458Z,31.85
2017-12-02T18:14:45.726Z,36.67
2017-12-02T18:17:15.752Z,31.90
2017-12-02T18:19:45.038Z,29.17
2017-12-02T18:22:14.293Z,34.13
2017-12-02T18:24:43.565Z,31.45
2017-12-02T18:27:12.819Z,31.08
2017-12-02T18:29:42.072Z,33.05
2017-12-02T18:32:11.346Z,35.25
2017-12-02T18:34:41.378Z,33.92
2017-12-02T18:37:11.421Z,31.48
2017-12-02T18:39:40.671Z,33.67
2017-12-02T18:42:10.692Z,33.53
2017-12-02T18:44:40.698Z,31.98
2017-12-02T18:47:10.723Z,28.45
2017-12-02T18:49:40.742Z,36.25
2017-12-02T18:52:10.761Z,37.10
2017-12-02T18:54:40.035Z,34.28
2017-12-02T18:57:09.278Z,32.42
2017-12-02T18:59:38.538Z,37.17
2017-12-02T19:02:07.785Z,34.28
2017-12-02T19:04:37.066Z,35.40
2017-12-02T19:07:06.336Z,39.42
2017-12-02T19:09:35.582Z,39.22
2017-12-02T19:12:04.849Z,38.20
2017-12-02T19:14:34.876Z,31.17
2017-12-02T19:17:04.137Z,34.28
2017-12-02T19:19:33.389Z,35.55
2017-12-02T19:22:02.639Z,35.55
2017-12-02T19:24:31.879Z,36.47
2017-12-02T19:27:01.163Z,32.05
2017-12-02T19:29:31.194Z,32.05
2017-12-02T19:32:00.480Z,36.17
2017-12-02T19:34:30.493Z,36.85
2017-12-02T19:37:00.504Z,35.28
2017-12-02T19:39:30.572Z,43.42
2017-12-02T19:41:59.798Z,36.10
2017-12-02T19:44:29.094Z,39.92
2017-12-02T19:46:58.375Z,33.28
2017-12-02T19:49:27.630Z,37.38
2017-12-02T19:51:57.657Z,36.35
2017-12-02T19:54:27.691Z,36.63
2017-12-02T19:56:56.975Z,35.78
2017-12-02T19:59:26.979Z,31.23
2017-12-02T20:01:57.021Z,36.60
2017-12-02T20:04:26.270Z,34.17
2017-12-02T20:06:55.513Z,35.00
2017-12-02T20:09:24.773Z,32.35
2017-12-02T20:11:54.036Z,33.03
2017-12-02T20:16:58.608Z,34.83
2017-12-02T20:19:27.901Z,39.20
2017-12-02T20:21:58.131Z,33.00
2017-12-02T20:24:27.401Z,31.25
2017-12-02T20:26:56.647Z,35.17
2017-12-02T20:29:26.660Z,30.90
2017-12-02T20:31:56.707Z,35.80
2017-12-02T20:34:25.984Z,35.10
2017-12-02T20:36:56.015Z,36.97
2017-12-02T20:39:25.276Z,35.40
2017-12-02T20:41:54.515Z,33.83
2017-12-02T20:44:23.758Z,29.37
2017-12-02T20:46:53.018Z,35.83
2017-12-02T20:49:22.265Z,31.92
2017-12-02T20:51:51.525Z,38.47
2017-12-02T20:54:20.766Z,35.30
2017-12-02T20:56:50.046Z,36.88
2017-12-02T20:59:19.298Z,35.17
2017-12-02T21:01:48.624Z,36.53
2017-12-02T21:04:17.896Z,41.45
2017-12-02T21:06:47.192Z,41.80
2017-12-02T21:09:17.216Z,37.60
2017-12-02T21:11:46.677Z,41.70
2017-12-02T21:14:15.938Z,43.35
2017-12-02T21:16:45.197Z,38.15
2017-12-02T21:19:15.231Z,40.90
2017-12-02T21:21:44.515Z,40.22
2017-12-02T21:24:13.761Z,38.33
2017-12-02T21:26:43.040Z,40.35
2017-12-02T21:29:12.293Z,36.72
2017-12-02T21:31:41.579Z,36.20
2017-12-02T21:34:10.809Z,41.47
2017-12-02T21:36:40.070Z,37.58
2017-12-02T21:39:09.330Z,34.00
2017-12-02T21:41:38.581Z,44.30
2017-12-02T21:44:07.819Z,38.28
2017-12-02T21:46:37.093Z,36.88
2017-12-02T21:49:06.334Z,36.72
2017-12-02T21:51:35.600Z,36.92
2017-12-02T21:54:04.851Z,35.40
2017-12-02T21:56:34.143Z,37.28
2017-12-02T21:59:03.406Z,35.17
2017-12-02T22:01:33.447Z,38.28
2017-12-02T22:04:02.688Z,35.38
2017-12-02T22:06:31.941Z,37.90
2017-12-02T22:09:01.202Z,46.10
2017-12-02T22:11:30.455Z,37.90
2017-12-02T22:13:59.735Z,36.72
2017-12-02T22:16:28.963Z,39.05
2017-12-02T22:18:58.237Z,37.95
2017-12-02T22:21:27.534Z,38.22
2017-12-02T22:23:56.810Z,37.28
2017-12-02T22:26:26.063Z,37.92
2017-12-02T22:28:55.333Z,35.80
2017-12-02T22:31:24.579Z,35.08
2017-12-02T22:33:53.828Z,40.92
2017-12-02T22:36:23.136Z,38.50
2017-12-02T22:38:52.383Z,40.53
2017-12-02T22:41:21.687Z,40.47
2017-12-02T22:43:50.938Z,43.45
2017-12-02T22:46:20.179Z,39.35
2017-12-02T22:48:49.415Z,41.55
2017-12-02T22:51:19.463Z,38.60
2017-12-02T22:53:48.705Z,35.08
2017-12-02T22:56:17.949Z,37.15
2017-12-02T22:58:47.258Z,39.63
2017-12-02T23:01:16.510Z,40.22
2017-12-02T23:03:45.801Z,33.47
2017-12-02T23:06:15.060Z,30.90
2017-12-02T23:08:44.305Z,32.50
2017-12-02T23:11:13.581Z,35.67
2017-12-02T23:13:42.815Z,28.48
2017-12-02T23:16:12.878Z,29.75
2017-12-02T23:18:42.132Z,25.60
2017-12-02T23:21:12.233Z,27.35
2017-12-02T23:23:41.494Z,25.30
2017-12-02T23:26:10.751Z,28.83
2017-12-02T23:28:40.772Z,18.95
2017-12-02T23:31:10.809Z,25.92
2017-12-02T23:33:40.075Z,29.00
2017-12-02T23:36:09.332Z,24.83
2017-12-02T23:38:38.602Z,23.08
2017-12-02T23:41:07.853Z,27.30
2017-12-02T23:43:37.096Z,24.27
2017-12-02T23:46:06.333Z,23.05
2017-12-02T23:48:35.585Z,27.42
2017-12-02T23:51:05.619Z,22.05
2017-12-02T23:53:34.884Z,24.27
2017-12-02T23:56:04.144Z,31.00
2017-12-02T23:58:33.384Z,24.80
